JIA5249 KMSY-KDFW
Flight info
| Callsign | JIA5249 |
|---|---|
| Flight time | N/A |
| Altitude | 32000 |
| Route | AEX PNUTS BEREE3 |
| Aircraft | CRJ9/M-SDFGIRWY/S |
Departure
| Time | 2026-05-03 22:35 |
|---|---|
| Airport | Louis Armstrong New Orleans International Airport (KMSY) |
Arrival
| Time | N/A |
|---|---|
| Airport | Dallas Fort Worth International Airport (KDFW) |
| Time | Latitude | Longitude | Altitude | Speed | Heading |
|---|---|---|---|---|---|
| 2026-05-03 21:56 | 29.99433 | -90.25614 | 5 ft | 0 kts | 270° |
| 2026-05-03 22:12 | 29.99433 | -90.25604 | 5 ft | 4 kts | 267° |
| 2026-05-03 22:12 | 29.99438 | -90.25574 | 5 ft | 4 kts | 248° |
| 2026-05-03 22:12 | 29.99453 | -90.25551 | 5 ft | 4 kts | 209° |
| 2026-05-03 22:12 | 29.99466 | -90.25548 | 5 ft | 1 kts | 181° |
| 2026-05-03 22:25 | 29.99456 | -90.25548 | 5 ft | 4 kts | 180° |
| 2026-05-03 22:25 | 29.99409 | -90.25549 | 4 ft | 9 kts | 181° |
| 2026-05-03 22:26 | 29.99328 | -90.25551 | 4 ft | 14 kts | 181° |
| 2026-05-03 22:26 | 29.99237 | -90.25559 | 4 ft | 12 kts | 204° |
| 2026-05-03 22:26 | 29.99203 | -90.25655 | 2 ft | 16 kts | 281° |
| 2026-05-03 22:26 | 29.99227 | -90.25786 | 2 ft | 13 kts | 284° |
| 2026-05-03 22:27 | 29.99293 | -90.25862 | 2 ft | 16 kts | 344° |
| 2026-05-03 22:27 | 29.99354 | -90.25953 | 1 ft | 17 kts | 284° |
| 2026-05-03 22:27 | 29.99386 | -90.26082 | 3 ft | 16 kts | 285° |
| 2026-05-03 22:27 | 29.99417 | -90.26213 | 5 ft | 18 kts | 285° |
| 2026-05-03 22:28 | 29.99453 | -90.26362 | 6 ft | 21 kts | 286° |
| 2026-05-03 22:28 | 29.99494 | -90.26528 | 9 ft | 22 kts | 285° |
| 2026-05-03 22:28 | 29.99538 | -90.26711 | 8 ft | 23 kts | 285° |
| 2026-05-03 22:28 | 29.99571 | -90.26847 | 10 ft | 18 kts | 285° |
| 2026-05-03 22:29 | 29.99609 | -90.27001 | 9 ft | 22 kts | 285° |
| 2026-05-03 22:29 | 29.99650 | -90.27171 | 4 ft | 22 kts | 284° |
| 2026-05-03 22:29 | 29.99692 | -90.27353 | 3 ft | 25 kts | 285° |
| 2026-05-03 22:29 | 29.99738 | -90.27545 | 2 ft | 17 kts | 285° |
| 2026-05-03 22:30 | 29.99710 | -90.27667 | 1 ft | 18 kts | 200° |
| 2026-05-03 22:30 | 29.99654 | -90.27686 | -1 ft | 4 kts | 197° |
| 2026-05-03 22:30 | 29.99652 | -90.27686 | -1 ft | 0 kts | 197° |
| 2026-05-03 22:30 | 29.99647 | -90.27688 | -1 ft | 3 kts | 197° |
| 2026-05-03 22:31 | 29.99608 | -90.27701 | -2 ft | 8 kts | 200° |
| 2026-05-03 22:31 | 29.99560 | -90.27755 | -1 ft | 11 kts | 227° |
| 2026-05-03 22:31 | 29.99485 | -90.27797 | 0 ft | 13 kts | 203° |
| 2026-05-03 22:31 | 29.99469 | -90.27895 | 1 ft | 14 kts | 284° |
| 2026-05-03 22:32 | 29.99498 | -90.28013 | 4 ft | 16 kts | 285° |
| 2026-05-03 22:32 | 29.99528 | -90.28134 | 5 ft | 13 kts | 290° |
| 2026-05-03 22:32 | 29.99558 | -90.28172 | 5 ft | 0 kts | 335° |
| 2026-05-03 22:33 | 29.99560 | -90.28173 | 5 ft | 0 kts | 339° |
| 2026-05-03 22:33 | 29.99561 | -90.28174 | 5 ft | 1 kts | 341° |
| 2026-05-03 22:33 | 29.99582 | -90.28176 | 5 ft | 5 kts | 360° |
| 2026-05-03 22:34 | 29.99632 | -90.28166 | 5 ft | 9 kts | 18° |
| 2026-05-03 22:34 | 29.99648 | -90.28116 | 4 ft | 0 kts | 104° |
| 2026-05-03 22:35 | 29.99628 | -90.28031 | 4 ft | 45 kts | 105° |
| 2026-05-03 22:35 | 29.99466 | -90.27354 | 1 ft | 127 kts | 105° |
| 2026-05-03 22:35 | 29.99184 | -90.26170 | 249 ft | 166 kts | 103° |
| 2026-05-03 22:35 | 29.98847 | -90.24906 | 1049 ft | 165 kts | 107° |
| 2026-05-03 22:36 | 29.98482 | -90.23622 | 1728 ft | 172 kts | 107° |
| 2026-05-03 22:36 | 29.98090 | -90.22238 | 2238 ft | 192 kts | 106° |
| 2026-05-03 22:36 | 29.97678 | -90.20697 | 2783 ft | 209 kts | 105° |
| 2026-05-03 22:36 | 29.97239 | -90.19043 | 3291 ft | 222 kts | 105° |
| 2026-05-03 22:37 | 29.96774 | -90.17304 | 3772 ft | 232 kts | 105° |
| 2026-05-03 22:37 | 29.96281 | -90.15491 | 4187 ft | 245 kts | 105° |